createdAt,value
2019-03-05T00:01:52.904Z,2.60
2019-03-05T00:04:23.813Z,2.00
2019-03-05T00:06:54.333Z,2.05
2019-03-05T00:09:24.662Z,2.30
2019-03-05T00:11:54.985Z,2.20
2019-03-05T00:14:25.331Z,3.33
2019-03-05T00:16:55.660Z,2.65
2019-03-05T00:19:25.996Z,2.27
2019-03-05T00:21:56.411Z,2.47
2019-03-05T00:24:59.672Z,1.80
2019-03-05T00:27:31.812Z,2.50
2019-03-05T00:30:12.897Z,3.08
2019-03-05T00:32:46.228Z,2.00
2019-03-05T00:35:32.380Z,2.20
2019-03-05T00:38:24.701Z,2.02
2019-03-05T00:41:23.761Z,2.83
2019-03-05T00:44:35.783Z,1.95
2019-03-05T00:47:24.957Z,2.17
2019-03-05T00:50:39.100Z,2.15
2019-03-05T00:53:16.660Z,2.42
2019-03-05T00:56:29.782Z,2.05
2019-03-05T00:59:31.186Z,1.77
2019-03-05T01:02:42.689Z,1.98
2019-03-05T01:05:53.965Z,1.75
2019-03-05T01:08:24.434Z,2.30
2019-03-05T01:10:54.769Z,2.15
2019-03-05T01:13:25.165Z,1.70
2019-03-05T01:15:55.502Z,2.20
2019-03-05T01:18:25.831Z,2.87
2019-03-05T01:20:56.176Z,2.75
2019-03-05T01:23:26.504Z,1.40
2019-03-05T01:25:57.220Z,2.60
2019-03-05T01:28:27.552Z,1.92
2019-03-05T01:31:08.744Z,2.22
2019-03-05T01:33:50.763Z,1.77
2019-03-05T01:36:22.748Z,2.20
2019-03-05T01:39:10.891Z,1.87
2019-03-05T01:41:41.228Z,1.30
2019-03-05T01:44:11.554Z,2.10
2019-03-05T01:46:41.883Z,1.57
2019-03-05T01:49:12.206Z,1.52
2019-03-05T01:51:42.529Z,1.82
2019-03-05T01:54:12.876Z,1.57
2019-03-05T01:56:43.195Z,1.55
2019-03-05T01:59:13.514Z,1.67
2019-03-05T02:01:43.856Z,1.52
2019-03-05T02:04:14.567Z,1.60
2019-03-05T02:06:44.907Z,1.80
2019-03-05T02:09:15.237Z,1.70
2019-03-05T02:11:45.568Z,1.60
2019-03-05T02:14:15.971Z,1.45
2019-03-05T02:16:46.308Z,1.70
2019-03-05T02:19:58.478Z,2.30
2019-03-05T02:22:33.088Z,1.75
2019-03-05T02:25:10.795Z,2.12
2019-03-05T02:28:06.936Z,1.57
2019-03-05T02:31:01.770Z,1.57
2019-03-05T02:33:57.685Z,1.52
2019-03-05T02:37:20.197Z,1.60
2019-03-05T02:40:18.628Z,1.25
2019-03-05T02:43:05.342Z,1.32
2019-03-05T02:46:16.098Z,2.15
2019-03-05T02:48:51.062Z,1.25
2019-03-05T02:51:50.999Z,1.30
2019-03-05T02:54:56.066Z,1.85
2019-03-05T02:57:25.030Z,1.85
2019-03-05T02:59:55.356Z,1.10
2019-03-05T03:02:36.492Z,1.25
2019-03-05T03:05:18.628Z,1.42
2019-03-05T03:07:48.951Z,1.10
2019-03-05T03:10:22.568Z,1.30
2019-03-05T03:12:52.965Z,1.07
2019-03-05T03:15:23.397Z,1.30
2019-03-05T03:17:53.725Z,1.00
2019-03-05T03:20:24.339Z,1.00
2019-03-05T03:22:54.664Z,1.27
2019-03-05T03:25:25.175Z,1.72
2019-03-05T03:27:56.468Z,1.02
2019-03-05T03:30:27.585Z,1.20
2019-03-05T03:32:57.986Z,1.12
2019-03-05T03:35:28.347Z,1.60
2019-03-05T03:37:58.677Z,0.98
2019-03-05T03:40:29.041Z,1.27
2019-03-05T03:42:59.797Z,1.20
2019-03-05T03:45:30.124Z,0.93
2019-03-05T03:48:00.446Z,1.17
2019-03-05T03:50:30.771Z,1.10
2019-03-05T03:53:01.113Z,1.30
2019-03-05T03:55:31.501Z,0.95
2019-03-05T03:58:03.396Z,1.50
2019-03-05T04:00:33.714Z,1.25
2019-03-05T04:03:04.489Z,1.42
2019-03-05T04:05:34.936Z,2.30
2019-03-05T04:08:05.235Z,1.98
2019-03-05T04:10:35.635Z,2.05
2019-03-05T04:13:05.998Z,2.45
2019-03-05T04:15:36.309Z,2.00
2019-03-05T04:18:06.645Z,2.80
2019-03-05T04:20:38.612Z,1.77
2019-03-05T04:23:08.955Z,2.10
2019-03-05T04:25:39.284Z,2.05
2019-03-05T04:28:09.639Z,1.95
2019-03-05T04:30:40.949Z,1.85
2019-03-05T04:33:11.293Z,2.40
2019-03-05T04:35:41.625Z,1.92
2019-03-05T04:38:11.960Z,2.35
2019-03-05T04:40:42.290Z,2.17
2019-03-05T04:43:12.649Z,1.57
2019-03-05T04:45:44.623Z,1.57
2019-03-05T04:48:14.961Z,2.33
2019-03-05T04:50:54.121Z,1.72
2019-03-05T04:53:24.447Z,1.72
2019-03-05T04:55:54.792Z,2.10
2019-03-05T04:58:26.112Z,2.25
2019-03-05T05:00:56.442Z,1.87
2019-03-05T05:03:26.768Z,2.42
2019-03-05T05:05:57.195Z,3.10
2019-03-05T05:08:27.532Z,2.80
2019-03-05T05:10:57.861Z,2.58
2019-03-05T05:13:28.214Z,2.83
2019-03-05T05:15:58.552Z,3.12
2019-03-05T05:18:28.895Z,3.00
2019-03-05T05:21:00.559Z,3.25
2019-03-05T05:23:30.847Z,3.22
2019-03-05T05:26:01.183Z,3.55
2019-03-05T05:28:31.534Z,3.47
2019-03-05T05:31:01.869Z,3.37
2019-03-05T05:33:32.205Z,4.78
2019-03-05T05:36:03.511Z,4.30
2019-03-05T05:38:33.850Z,4.45
2019-03-05T05:41:04.185Z,3.85
2019-03-05T05:43:34.532Z,3.70
2019-03-05T05:46:04.867Z,4.12
2019-03-05T05:48:35.210Z,4.00
2019-03-05T05:51:05.556Z,3.92
2019-03-05T05:53:35.903Z,3.47
2019-03-05T05:56:06.233Z,2.50
2019-03-05T05:58:36.574Z,2.62
2019-03-05T06:01:08.542Z,3.33
2019-03-05T06:03:38.879Z,3.15
2019-03-05T06:06:09.205Z,3.62
2019-03-05T06:08:39.548Z,3.67
2019-03-05T06:11:09.876Z,4.45
2019-03-05T06:13:40.231Z,3.45
2019-03-05T06:16:10.565Z,4.47
2019-03-05T06:18:40.924Z,4.97
2019-03-05T06:21:12.221Z,4.35
2019-03-05T06:23:42.552Z,3.92
2019-03-05T06:26:12.887Z,4.50
2019-03-05T06:28:43.244Z,4.15
2019-03-05T06:31:13.569Z,4.03
2019-03-05T06:33:43.903Z,3.65
2019-03-05T06:36:14.228Z,3.42
2019-03-05T06:38:44.562Z,3.70
2019-03-05T06:41:14.898Z,3.20
2019-03-05T06:43:45.246Z,3.37
2019-03-05T06:46:15.576Z,3.58
2019-03-05T06:48:45.911Z,3.15
2019-03-05T06:51:16.245Z,2.75
2019-03-05T06:53:46.569Z,3.67
2019-03-05T06:56:16.910Z,4.17
2019-03-05T06:58:48.462Z,4.08
2019-03-05T07:01:18.797Z,4.33
2019-03-05T07:03:49.121Z,4.00
2019-03-05T07:07:10.810Z,4.03
2019-03-05T07:10:07.480Z,4.90
2019-03-05T07:13:02.846Z,5.35
2019-03-05T07:15:58.508Z,4.42
2019-03-05T07:18:36.800Z,4.60
2019-03-05T07:21:43.962Z,4.87
2019-03-05T07:24:18.904Z,4.60
2019-03-05T07:26:49.232Z,4.20
2019-03-05T07:29:19.574Z,5.30
2019-03-05T07:31:49.921Z,4.80
2019-03-05T07:34:21.902Z,3.98
2019-03-05T07:36:52.232Z,4.75
2019-03-05T07:39:24.562Z,4.47
2019-03-05T07:41:54.893Z,4.28
2019-03-05T07:44:25.231Z,4.67
2019-03-05T07:46:55.562Z,4.45
2019-03-05T07:49:25.906Z,4.83
2019-03-05T07:51:56.235Z,4.25
2019-03-05T07:54:26.570Z,3.87
2019-03-05T07:56:56.896Z,4.03
2019-03-05T07:59:27.230Z,3.22
2019-03-05T08:01:57.568Z,3.60
2019-03-05T08:04:27.906Z,3.08
2019-03-05T08:06:58.238Z,3.22
2019-03-05T08:09:37.678Z,2.83
2019-03-05T08:12:50.861Z,3.65
2019-03-05T08:15:36.247Z,3.50
2019-03-05T08:18:06.585Z,3.33
2019-03-05T08:20:36.920Z,3.30
2019-03-05T08:23:07.897Z,4.22
2019-03-05T08:25:39.077Z,4.22
2019-03-05T08:28:09.405Z,3.75
2019-03-05T08:30:39.807Z,4.40
2019-03-05T08:33:10.131Z,4.53
2019-03-05T08:35:40.461Z,3.87
2019-03-05T08:38:10.786Z,5.03
2019-03-05T08:40:41.128Z,4.08
2019-03-05T08:43:11.527Z,5.25
2019-03-05T08:45:41.800Z,5.10
2019-03-05T08:48:12.138Z,4.67
2019-03-05T08:50:42.472Z,4.80
2019-03-05T08:53:12.801Z,4.75
2019-03-05T08:55:43.126Z,5.35
2019-03-05T08:58:13.473Z,5.15
2019-03-05T09:00:43.797Z,4.53
2019-03-05T09:03:15.108Z,4.70
2019-03-05T09:05:45.438Z,4.62
2019-03-05T09:08:16.243Z,4.65
2019-03-05T09:10:59.123Z,4.67
2019-03-05T09:13:32.925Z,4.45
2019-03-05T09:16:03.209Z,5.08
2019-03-05T09:18:33.583Z,4.53
2019-03-05T09:21:04.203Z,4.72
2019-03-05T09:23:34.528Z,4.97
2019-03-05T09:26:04.998Z,4.62
2019-03-05T09:28:35.353Z,5.00
2019-03-05T09:31:05.687Z,4.15
2019-03-05T09:33:36.063Z,4.97
2019-03-05T09:36:07.974Z,5.25
2019-03-05T09:38:38.329Z,4.85
2019-03-05T09:41:08.743Z,4.05
2019-03-05T09:43:39.087Z,5.60
2019-03-05T09:46:09.415Z,4.70
2019-03-05T09:48:39.767Z,4.00
2019-03-05T09:51:10.119Z,3.50
2019-03-05T09:53:40.438Z,3.98
2019-03-05T09:56:10.776Z,3.42
2019-03-05T09:58:41.450Z,4.00
2019-03-05T10:01:11.923Z,3.65
2019-03-05T10:03:42.339Z,3.75
2019-03-05T10:06:12.610Z,3.75
2019-03-05T10:08:42.949Z,3.30
2019-03-05T10:11:13.623Z,2.83
2019-03-05T10:13:44.044Z,3.10
2019-03-05T10:16:14.370Z,2.90
2019-03-05T10:18:44.723Z,2.52
2019-03-05T10:21:16.118Z,2.70
2019-03-05T10:23:46.685Z,2.60
2019-03-05T10:26:18.632Z,3.00
2019-03-05T10:28:50.330Z,2.50
2019-03-05T10:31:20.667Z,2.75
2019-03-05T10:33:51.566Z,2.55
2019-03-05T10:36:21.898Z,2.33
2019-03-05T10:38:57.436Z,2.02
2019-03-05T10:41:24.787Z,3.05
2019-03-05T10:43:55.168Z,2.20
2019-03-05T10:46:25.495Z,3.02
2019-03-05T10:48:56.098Z,1.80
2019-03-05T10:51:26.570Z,1.92
2019-03-05T10:53:57.083Z,2.02
2019-03-05T10:56:27.425Z,2.25
2019-03-05T10:58:57.782Z,2.22
2019-03-05T11:01:28.123Z,1.75
2019-03-05T11:03:58.463Z,2.40
2019-03-05T11:06:28.959Z,1.80
2019-03-05T11:08:59.280Z,1.70
2019-03-05T11:11:29.613Z,1.82
2019-03-05T11:14:00.299Z,2.00
2019-03-05T11:16:31.313Z,2.00
2019-03-05T11:19:01.754Z,1.70
2019-03-05T11:21:32.088Z,1.87
2019-03-05T11:24:02.441Z,1.45
2019-03-05T11:26:32.773Z,1.40
2019-03-05T11:29:03.145Z,1.60
2019-03-05T11:31:33.623Z,1.27
2019-03-05T11:34:03.970Z,1.85
2019-03-05T11:36:34.314Z,1.45
2019-03-05T11:39:06.365Z,1.32
2019-03-05T11:41:38.313Z,1.50
2019-03-05T11:44:08.797Z,1.20
2019-03-05T11:46:40.165Z,1.45
2019-03-05T11:49:10.513Z,1.40
2019-03-05T11:51:40.854Z,1.30
2019-03-05T11:54:11.205Z,2.02
2019-03-05T11:56:41.549Z,1.80
2019-03-05T11:59:11.910Z,1.60
2019-03-05T12:01:42.244Z,1.62
2019-03-05T12:04:12.586Z,1.50
2019-03-05T12:06:42.925Z,1.22
2019-03-05T12:09:13.266Z,1.45
2019-03-05T12:11:43.597Z,1.50
2019-03-05T12:14:14.119Z,1.42
2019-03-05T12:16:44.454Z,1.27
2019-03-05T12:19:14.811Z,1.65
2019-03-05T12:21:45.133Z,1.02
2019-03-05T12:24:15.477Z,1.17
2019-03-05T12:26:45.819Z,1.52
2019-03-05T12:29:16.161Z,0.95
2019-03-05T12:31:46.505Z,1.72
2019-03-05T12:34:16.854Z,1.45
2019-03-05T12:36:47.196Z,1.27
2019-03-05T12:39:20.212Z,0.90
2019-03-05T12:41:50.547Z,1.00
2019-03-05T12:44:20.885Z,1.50
2019-03-05T12:46:51.246Z,1.35
2019-03-05T12:49:22.663Z,0.72
2019-03-05T12:51:52.996Z,0.72
2019-03-05T12:54:23.345Z,1.10
2019-03-05T12:56:53.694Z,0.88
2019-03-05T12:59:24.032Z,0.88
2019-03-05T13:01:54.371Z,0.85
2019-03-05T13:04:24.711Z,0.80
2019-03-05T13:06:55.053Z,0.90
2019-03-05T13:09:25.425Z,0.80
2019-03-05T13:11:55.734Z,0.90
2019-03-05T13:14:26.074Z,0.78
2019-03-05T13:16:56.405Z,0.80
2019-03-05T13:19:26.747Z,1.90
2019-03-05T13:21:57.084Z,1.10
2019-03-05T13:24:27.497Z,1.20
2019-03-05T13:26:57.832Z,1.25
2019-03-05T13:29:28.197Z,0.90
2019-03-05T13:31:58.531Z,1.27
2019-03-05T13:34:28.882Z,1.07
2019-03-05T13:37:01.006Z,2.72
2019-03-05T13:39:31.454Z,1.15
2019-03-05T13:42:01.797Z,0.93
2019-03-05T13:44:34.067Z,1.10
2019-03-05T13:47:05.858Z,0.70
2019-03-05T13:49:56.553Z,0.93
2019-03-05T13:52:32.243Z,0.78
2019-03-05T13:55:28.787Z,1.05
2019-03-05T13:58:39.925Z,0.88
2019-03-05T14:01:12.487Z,1.70
2019-03-05T14:03:47.443Z,1.00
2019-03-05T14:06:34.288Z,1.00
2019-03-05T14:09:15.924Z,1.30
2019-03-05T14:11:49.123Z,0.90
2019-03-05T14:14:25.414Z,0.93
2019-03-05T14:16:58.331Z,1.00
2019-03-05T14:19:28.685Z,0.80
2019-03-05T14:22:00.363Z,1.17
2019-03-05T14:24:30.708Z,1.32
2019-03-05T14:27:01.057Z,1.10
2019-03-05T14:29:31.437Z,0.75
2019-03-05T14:32:01.755Z,1.12
2019-03-05T14:34:32.086Z,0.80
2019-03-05T14:37:02.506Z,0.70
2019-03-05T14:39:34.114Z,0.88
2019-03-05T14:42:06.973Z,0.95
2019-03-05T14:44:40.184Z,1.10
2019-03-05T14:47:10.841Z,0.90
2019-03-05T14:49:41.255Z,1.00
2019-03-05T14:52:12.668Z,1.20
2019-03-05T14:54:43.031Z,1.00
2019-03-05T14:57:13.389Z,0.70
2019-03-05T14:59:43.714Z,1.10
2019-03-05T15:02:14.098Z,0.93
2019-03-05T15:04:44.445Z,1.00
2019-03-05T15:07:14.824Z,0.90
2019-03-05T15:09:45.165Z,1.10
2019-03-05T15:12:15.514Z,1.00
2019-03-05T15:14:45.848Z,1.10
2019-03-05T15:17:16.223Z,0.95
2019-03-05T15:19:46.520Z,0.80
2019-03-05T15:22:16.908Z,1.10
2019-03-05T15:24:47.299Z,0.75
2019-03-05T15:27:17.759Z,0.93
2019-03-05T15:29:48.103Z,0.88
2019-03-05T15:32:18.489Z,0.93
2019-03-05T15:34:50.428Z,0.57
2019-03-05T15:37:21.096Z,0.90
2019-03-05T15:39:51.454Z,0.90
2019-03-05T15:42:21.821Z,0.93
2019-03-05T15:44:52.241Z,0.90
2019-03-05T15:47:22.839Z,1.00
2019-03-05T15:49:53.138Z,1.00
2019-03-05T15:52:23.488Z,1.02
2019-03-05T15:54:53.829Z,1.10
2019-03-05T15:57:26.334Z,0.82
2019-03-05T15:59:56.209Z,1.00
2019-03-05T16:02:27.544Z,1.75
2019-03-05T16:04:57.884Z,1.50
2019-03-05T16:07:28.221Z,1.00
2019-03-05T16:09:58.557Z,1.35
2019-03-05T16:12:29.220Z,1.17
2019-03-05T16:14:59.571Z,1.82
2019-03-05T16:17:29.991Z,0.80
2019-03-05T16:20:00.340Z,1.05
2019-03-05T16:22:30.681Z,0.85
2019-03-05T16:25:01.018Z,0.95
2019-03-05T16:27:31.457Z,1.80
2019-03-05T16:30:01.878Z,1.22
2019-03-05T16:32:36.976Z,0.82
2019-03-05T16:35:18.437Z,0.70
2019-03-05T16:37:49.803Z,0.70
2019-03-05T16:40:24.984Z,0.70
2019-03-05T16:45:56.222Z,1.10
2019-03-05T16:48:37.082Z,1.10
2019-03-05T16:51:18.133Z,1.00
2019-03-05T16:53:53.006Z,0.60
2019-03-05T16:56:24.972Z,0.93
2019-03-05T16:58:59.982Z,0.90
2019-03-05T17:01:43.900Z,1.00
2019-03-05T17:04:15.881Z,1.32
2019-03-05T17:06:47.857Z,1.27
2019-03-05T17:09:31.763Z,1.12
2019-03-05T17:12:02.167Z,0.90
2019-03-05T17:14:32.807Z,0.80
2019-03-05T17:17:03.546Z,1.12
2019-03-05T17:19:34.970Z,1.15
2019-03-05T17:22:06.468Z,1.00
2019-03-05T17:24:36.895Z,1.20
2019-03-05T17:27:07.338Z,0.98
2019-03-05T17:29:37.694Z,0.90
2019-03-05T17:32:09.233Z,1.10
2019-03-05T17:34:39.645Z,1.75
2019-03-05T17:37:10.014Z,0.90
2019-03-05T17:39:40.394Z,1.22
2019-03-05T17:42:10.987Z,2.12
2019-03-05T17:44:41.419Z,1.37
2019-03-05T17:47:12.692Z,1.05
2019-03-05T17:49:43.053Z,1.00
2019-03-05T17:52:13.433Z,1.15
2019-03-05T17:54:43.800Z,1.47
2019-03-05T17:57:14.174Z,1.00
2019-03-05T17:59:44.600Z,1.62
2019-03-05T18:02:17.794Z,2.35
2019-03-05T18:04:48.503Z,1.15
2019-03-05T18:07:18.947Z,1.40
2019-03-05T18:09:49.377Z,1.37
2019-03-05T18:12:19.740Z,1.45
2019-03-05T18:14:50.113Z,1.32
2019-03-05T18:17:20.463Z,1.62
2019-03-05T18:19:50.960Z,1.22
2019-03-05T18:22:21.793Z,1.70
2019-03-05T18:24:52.150Z,1.37
2019-03-05T18:27:22.726Z,1.55
2019-03-05T18:29:53.157Z,1.52
2019-03-05T18:32:23.600Z,1.75
2019-03-05T18:34:53.968Z,1.82
2019-03-05T18:37:24.351Z,2.05
2019-03-05T18:39:54.747Z,1.50
2019-03-05T18:42:25.104Z,1.20
2019-03-05T18:44:55.491Z,1.62
2019-03-05T18:47:25.848Z,1.62
2019-03-05T18:49:56.294Z,1.55
2019-03-05T18:52:26.727Z,1.90
2019-03-05T18:54:57.096Z,2.10
2019-03-05T18:57:27.478Z,1.50
2019-03-05T18:59:58.775Z,1.40
2019-03-05T19:02:29.438Z,1.55
2019-03-05T19:04:59.852Z,2.47
2019-03-05T19:07:30.219Z,2.00
2019-03-05T19:10:00.585Z,2.05
2019-03-05T19:12:32.607Z,2.10
2019-03-05T19:15:03.114Z,2.62
2019-03-05T19:17:35.109Z,1.75
2019-03-05T19:20:11.040Z,1.30
2019-03-05T19:22:42.707Z,1.30
2019-03-05T19:25:17.309Z,1.85
2019-03-05T19:27:47.738Z,1.22
2019-03-05T19:30:24.793Z,1.77
2019-03-05T19:32:55.225Z,1.32
2019-03-05T19:35:25.586Z,2.05
2019-03-05T19:37:57.046Z,1.70
2019-03-05T19:40:42.472Z,1.20
2019-03-05T19:43:14.484Z,1.30
2019-03-05T19:45:44.843Z,1.90
2019-03-05T19:48:15.298Z,1.70
2019-03-05T19:50:45.834Z,1.52
2019-03-05T19:53:16.212Z,1.40
2019-03-05T19:55:47.552Z,2.10
2019-03-05T19:58:17.922Z,1.57
2019-03-05T20:01:02.805Z,2.08
2019-03-05T20:03:33.167Z,2.08
2019-03-05T20:06:03.605Z,2.65
2019-03-05T20:08:39.840Z,2.30
2019-03-05T20:11:06.445Z,1.82
2019-03-05T20:13:36.874Z,2.27
2019-03-05T20:16:08.076Z,1.95
2019-03-05T20:18:38.456Z,2.02
2019-03-05T20:21:09.091Z,2.02
2019-03-05T20:23:39.534Z,1.98
2019-03-05T20:26:09.897Z,1.75
2019-03-05T20:28:40.258Z,2.30
2019-03-05T20:31:10.623Z,2.17
2019-03-05T20:33:40.996Z,2.30
2019-03-05T20:36:11.353Z,2.17
2019-03-05T20:38:42.001Z,2.22
2019-03-05T20:41:12.358Z,2.00
2019-03-05T20:43:42.737Z,2.58
2019-03-05T20:46:20.404Z,2.52
2019-03-05T20:48:50.776Z,2.65
2019-03-05T20:51:21.199Z,2.65
2019-03-05T20:53:51.566Z,2.35
2019-03-05T20:56:21.998Z,2.37
2019-03-05T20:58:54.146Z,2.42
2019-03-05T21:01:24.558Z,2.37
2019-03-05T21:03:54.957Z,2.58
2019-03-05T21:06:25.459Z,2.37
2019-03-05T21:08:55.843Z,2.83
2019-03-05T21:11:26.209Z,2.83
2019-03-05T21:13:56.576Z,2.83
2019-03-05T21:16:26.936Z,2.52
2019-03-05T21:18:57.294Z,2.47
2019-03-05T21:21:27.731Z,2.42
2019-03-05T21:23:58.099Z,2.83
2019-03-05T21:26:28.631Z,2.72
2019-03-05T21:28:59.020Z,2.95
2019-03-05T21:31:29.379Z,2.65
2019-03-05T21:33:59.826Z,3.20
2019-03-05T21:36:30.184Z,2.92
2019-03-05T21:39:00.614Z,2.87
2019-03-05T21:41:32.354Z,3.47
2019-03-05T21:44:02.697Z,2.98
2019-03-05T21:46:34.507Z,3.17
2019-03-05T21:49:04.862Z,2.60
2019-03-05T21:51:35.257Z,3.27
2019-03-05T21:54:05.606Z,2.77
2019-03-05T21:56:35.937Z,2.80
2019-03-05T21:59:06.280Z,3.45
2019-03-05T22:01:36.973Z,2.70
2019-03-05T22:04:07.335Z,3.80
2019-03-05T22:06:37.682Z,3.33
2019-03-05T22:09:08.152Z,3.50
2019-03-05T22:11:40.154Z,2.90
2019-03-05T22:14:10.490Z,3.10
2019-03-05T22:16:40.827Z,2.77
2019-03-05T22:19:11.158Z,3.05
2019-03-05T22:21:41.495Z,3.47
2019-03-05T22:24:12.792Z,2.60
2019-03-05T22:26:44.209Z,3.50
2019-03-05T22:29:14.543Z,3.05
2019-03-05T22:31:44.924Z,3.67
2019-03-05T22:34:15.495Z,3.12
2019-03-05T22:36:45.836Z,2.62
2019-03-05T22:39:16.301Z,3.27
2019-03-05T22:41:49.327Z,3.30
2019-03-05T22:44:19.652Z,3.70
2019-03-05T22:46:50.837Z,3.75
2019-03-05T22:49:21.174Z,3.52
2019-03-05T22:51:51.516Z,3.17
2019-03-05T22:54:21.848Z,3.67
2019-03-05T22:56:52.474Z,3.72
2019-03-05T22:59:22.803Z,3.30
2019-03-05T23:01:53.215Z,3.40
2019-03-05T23:04:28.259Z,3.30
2019-03-05T23:07:00.515Z,3.37
2019-03-05T23:09:32.105Z,3.27
2019-03-05T23:12:02.514Z,2.90
2019-03-05T23:14:33.764Z,3.10
2019-03-05T23:17:04.351Z,3.62
2019-03-05T23:19:34.744Z,3.25
2019-03-05T23:22:05.155Z,3.05
2019-03-05T23:24:35.553Z,3.62
2019-03-05T23:27:08.472Z,3.00
2019-03-05T23:29:40.528Z,2.92
2019-03-05T23:32:10.866Z,3.00
2019-03-05T23:34:42.584Z,2.77
2019-03-05T23:37:13.052Z,3.62
2019-03-05T23:39:43.561Z,3.65
2019-03-05T23:42:13.969Z,3.83
2019-03-05T23:44:44.296Z,3.62
2019-03-05T23:47:14.624Z,3.45
2019-03-05T23:49:44.967Z,3.52
2019-03-05T23:52:15.304Z,3.50
2019-03-05T23:54:45.638Z,3.40
2019-03-05T23:57:15.977Z,3.17
2019-03-05T23:59:47.482Z,3.90
